Date,TemperatureHighF,TemperatureAvgF,TemperatureLowF,DewpointHighF,DewpointAvgF,DewpointLowF,HumidityHigh,HumidityAvg,HumidityLow,PressureMaxIn,PressureMinIn,WindSpeedMaxMPH,WindSpeedAvgMPH,GustSpeedMaxMPH,PrecipitationSumIn
2013-10-1,64,45,28,30,24,19,78,49,20,30.00,29.85,7,0,0,0.00
2013-10-2,60,42,27,27,22,19,77,50,23,30.02,29.87,2,0,0,0.00
2013-10-3,57,42,29,24,21,18,69,46,23,29.90,29.61,7,1,0,0.00
2013-10-4,40,26,18,26,13,5,80,58,40,30.27,29.56,8,2,0,0.01
2013-10-5,38,26,17,9,5,3,64,43,25,30.54,30.27,7,2,0,0.00
2013-10-6,54,37,24,25,17,5,64,46,32,30.52,30.36,11,1,0,0.00
2013-10-7,64,43,25,21,15,9,63,38,15,30.36,30.04,5,0,0,0.00
2013-10-8,59,42,30,23,19,14,61,42,18,30.04,29.75,5,0,0,0.00
2013-10-9,53,38,26,26,22,19,80,56,29,29.98,29.83,5,0,0,0.00
2013-10-10,40,32,27,33,24,14,87,72,54,29.97,29.62,13,1,0,0.00
2013-10-11,34,29,27,21,16,-100,76,64,57,30.19,29.65,12,-18,0,0.00
2013-10-12,47,31,17,22,15,9,82,55,26,30.36,30.19,4,0,0,0.00
2013-10-13,50,34,20,30,23,16,88,69,33,30.30,29.99,7,0,0,0.00
2013-10-14,37,29,25,26,21,15,91,72,51,30.23,29.81,8,1,0,0.01
2013-10-15,31,24,19,24,19,14,89,80,60,30.32,30.20,3,0,0,0.01
2013-10-16,33,25,18,19,15,5,90,68,44,30.32,30.24,9,2,0,0.03
2013-10-17,39,28,18,18,9,2,69,46,27,30.30,30.10,6,1,0,0.00
2013-10-18,29,23,18,19,10,3,84,60,41,30.41,30.07,9,1,0,0.01
2013-10-19,41,30,22,18,13,6,62,49,37,30.39,30.11,7,2,0,0.01
2013-10-20,41,31,24,21,16,12,82,53,39,30.13,29.95,6,1,0,0.00
2013-10-21,40,29,17,17,14,8,83,56,35,30.40,30.13,9,1,0,0.00
2013-10-22,50,35,26,21,18,15,65,50,29,30.41,30.23,5,0,0,0.00
2013-10-23,53,36,25,20,16,13,65,45,23,30.29,30.19,5,0,0,0.00
2013-10-24,53,35,21,19,15,12,73,48,23,30.35,30.24,4,0,0,0.00
2013-10-25,47,35,25,26,20,14,71,54,34,30.34,30.19,4,0,0,0.00
2013-10-26,49,34,21,23,18,14,84,57,29,30.42,30.32,4,0,0,0.00
2013-10-27,47,34,25,20,16,11,64,48,29,30.33,29.98,6,1,0,0.00
2013-10-28,45,31,21,25,17,12,81,58,31,30.02,29.91,6,0,0,0.00
2013-10-29,40,32,26,25,16,11,90,55,34,30.01,29.80,7,1,0,0.00
2013-10-30,34,23,14,23,12,8,88,65,41,30.04,29.80,7,1,0,0.12
2013-10-31,29,22,19,17,12,8,78,63,52,30.23,30.02,9,2,0,0.01